Terminal Aerodrome Forecast
Issued by NWS

Home | Current Version | Previous Version | Graphics & Text | Print | Product List | Glossary On
Versions: 1 2 3 4 5 6 7 8 9 10 11 12 13
740
FTUS43 KICT 162331
TAFHUT
TAF
KHUT 162331Z 1700/1724 18013KT P6SM FEW250
     FM170500 18009KT P6SM SCT200
     FM171500 19011KT P6SM FEW250=

USA.gov is the U.S. government's official web portal to all federal, state and local government web resources and services.